Decoded Metar for USRR (SURGUT in RUSSIA) (IATA:SGC) | Meteo·Mobile Aviation Weather
aviador You're here:

USRR Decoded Metar

SURGUT in RUSSIA
Report Time2019-07-22 01:00:00
UTC Time2019-07-22 01:25:15
Flight Rules vfr VFR
Wind100° at 6 kt
W.Decomp.*RWY 07: 5.8 kt HW 1.5 kt RCW
Visibility9999 m
Phenomena:N/A
Clouds:N/A
CeilingNone
Temp15°C (ISA 0)
Dew Point15°C (100% RH)
AAT14.5°C
QNH1009 hPa
Density Alt541 ft
Elevation144 ft
Report Wrong Elevation
Raw Report
USRR 220100Z 10003MPS CAVOK 15/15 Q1009 R07/CLRD60 NOSIG RMK
QFE752=

Extra information for USRR:More info

Metar Taf Metar & Taf Last 4 Metars F.Rules Stats Wind Profile Meteogram Temp Stats Airport Information Weather charts Add Link Nearby VenuesMetar ALERT Operation Metar Decoded Social comments